TimeCST,TemperatureF,Dew PointF,Humidity,Sea Level PressureIn,VisibilityMPH,Wind Direction,Wind SpeedMPH,Gust SpeedMPH,PrecipitationIn,Events,Conditions,WindDirDegrees,DateUTC
12:15 AM,-9.4,-16.6,71,30.00,10.0,NW,15.0,-,N/A,Snow,Light Snow,320,2013-01-31 06:15:00
12:35 AM,-9.4,-16.6,71,30.00,6.0,NNW,23.0,27.6,N/A,Snow,Light Snow,330,2013-01-31 06:35:00
12:55 AM,-9.4,-16.6,71,30.01,8.0,NNW,23.0,-,N/A,,Overcast,330,2013-01-31 06:55:00
1:15 AM,-9.4,-16.6,71,30.02,4.0,NW,19.6,29.9,N/A,Rain,Freezing Rain,320,2013-01-31 07:15:00
1:35 AM,-11.2,-16.6,77,30.02,3.0,NNW,21.9,27.6,N/A,Rain,Freezing Rain,330,2013-01-31 07:35:00
1:55 AM,-11.2,-16.6,77,30.03,2.0,NW,23.0,26.5,N/A,Rain,Freezing Rain,320,2013-01-31 07:55:00
2:15 AM,-11.2,-16.6,77,30.04,1.8,NNW,25.3,31.1,N/A,Snow,Light Snow,330,2013-01-31 08:15:00
2:35 AM,-11.2,-16.6,77,30.06,2.0,NW,19.6,32.2,N/A,Rain,Freezing Rain,320,2013-01-31 08:35:00
2:55 AM,-11.2,-16.6,77,30.07,3.0,NNW,21.9,28.8,0.01,Rain,Freezing Rain,330,2013-01-31 08:55:00
3:15 AM,-13.0,-18.4,77,30.08,2.5,NW,25.3,29.9,N/A,Rain,Freezing Rain,320,2013-01-31 09:15:00
3:35 AM,-13.0,-18.4,77,30.08,1.5,NNW,27.6,33.4,N/A,Rain,Freezing Rain,330,2013-01-31 09:35:00
3:55 AM,-13.0,-20.2,70,30.08,1.5,NNW,21.9,34.5,N/A,,Haze,330,2013-01-31 09:55:00
4:15 AM,-13.0,-20.2,70,30.10,1.8,NW,25.3,36.8,N/A,,Haze,320,2013-01-31 10:15:00
4:35 AM,-14.8,-20.2,77,30.11,3.0,NW,24.2,31.1,N/A,,Haze,320,2013-01-31 10:35:00
4:55 AM,-14.8,-20.2,77,30.12,2.0,NW,28.8,33.4,N/A,,Haze,320,2013-01-31 10:55:00
5:15 AM,-14.8,-20.2,77,30.13,3.0,NW,24.2,31.1,N/A,,Haze,320,2013-01-31 11:15:00
5:35 AM,-16.6,-22.0,76,30.14,2.5,NW,24.2,32.2,N/A,,Haze,320,2013-01-31 11:35:00
5:55 AM,-16.6,-22.0,76,30.15,3.0,NW,24.2,31.1,N/A,,Haze,310,2013-01-31 11:55:00
6:15 AM,-16.6,-22.0,76,30.17,4.0,NW,21.9,29.9,N/A,,Haze,320,2013-01-31 12:15:00
6:35 AM,-16.6,-22.0,76,30.19,4.0,NW,20.7,28.8,N/A,,Haze,320,2013-01-31 12:35:00
6:55 AM,-16.6,-22.0,76,30.20,4.0,NW,18.4,28.8,N/A,,Haze,320,2013-01-31 12:55:00
7:15 AM,-16.6,-22.0,76,30.20,4.0,NW,23.0,29.9,N/A,,Haze,320,2013-01-31 13:15:00
7:35 AM,-16.6,-22.0,76,30.21,8.0,NW,19.6,28.8,N/A,,Partly Cloudy,320,2013-01-31 13:35:00
7:55 AM,-16.6,-22.0,76,30.21,10.0,NW,21.9,26.5,N/A,,Clear,320,2013-01-31 13:55:00
8:15 AM,-16.6,-22.0,76,30.22,10.0,NW,18.4,23.0,N/A,,Clear,310,2013-01-31 14:15:00
8:35 AM,-16.6,-22.0,76,30.23,9.0,NW,19.6,25.3,N/A,,Clear,310,2013-01-31 14:35:00
8:55 AM,-16.6,-22.0,76,30.24,10.0,NW,17.3,21.9,N/A,,Clear,310,2013-01-31 14:55:00
9:15 AM,-16.6,-22.0,76,30.25,5.0,NW,18.4,24.2,N/A,,Haze,310,2013-01-31 15:15:00
9:35 AM,-14.8,-22.0,70,30.26,6.0,NW,16.1,24.2,N/A,,Haze,310,2013-01-31 15:35:00
9:55 AM,-14.8,-22.0,70,30.27,9.0,NW,15.0,21.9,N/A,,Clear,310,2013-01-31 15:55:00
10:15 AM,-13.0,-20.2,70,30.27,10.0,NW,17.3,20.7,N/A,,Clear,310,2013-01-31 16:15:00
10:35 AM,-13.0,-20.2,70,30.28,9.0,NW,17.3,-,N/A,,Clear,310,2013-01-31 16:35:00
10:55 AM,-13.0,-20.2,70,30.29,10.0,NW,21.9,26.5,N/A,,Clear,310,2013-01-31 16:55:00
11:15 AM,-13.0,-20.2,70,30.29,6.0,NW,19.6,28.8,N/A,,Haze,310,2013-01-31 17:15:00
2:55 PM,-9.4,-16.6,71,30.26,10.0,WNW,18.4,21.9,N/A,,Clear,300,2013-01-31 20:55:00
3:15 PM,-7.6,-16.6,65,30.26,10.0,WNW,16.1,-,N/A,,Clear,300,2013-01-31 21:15:00
3:35 PM,-7.6,-16.6,65,30.26,10.0,WNW,17.3,-,N/A,,Clear,300,2013-01-31 21:35:00
3:55 PM,-7.6,-16.6,65,30.25,10.0,WNW,16.1,-,N/A,,Clear,300,2013-01-31 21:55:00
4:15 PM,-7.6,-16.6,65,30.25,10.0,WNW,12.7,-,N/A,,Partly Cloudy,300,2013-01-31 22:15:00
4:35 PM,-7.6,-16.6,65,30.25,10.0,WNW,13.8,-,N/A,,Partly Cloudy,300,2013-01-31 22:35:00
4:55 PM,-7.6,-16.6,65,30.25,10.0,WNW,15.0,-,N/A,,Clear,300,2013-01-31 22:55:00
5:15 PM,-7.6,-16.6,65,30.25,10.0,WNW,13.8,-,N/A,,Clear,290,2013-01-31 23:15:00
5:35 PM,-9.4,-16.6,71,30.24,10.0,WNW,11.5,-,N/A,,Scattered Clouds,300,2013-01-31 23:35:00
6:15 PM,-9.4,-16.6,71,30.24,10.0,WNW,8.1,-,N/A,,Mostly Cloudy,290,2013-02-01 00:15:00
6:35 PM,-11.2,-18.4,70,30.24,10.0,NW,6.9,-,N/A,,Scattered Clouds,310,2013-02-01 00:35:00
6:55 PM,-13.0,-18.4,77,30.24,10.0,WNW,6.9,-,N/A,,Clear,300,2013-02-01 00:55:00
7:15 PM,-13.0,-20.2,70,30.25,10.0,West,9.2,-,N/A,,Clear,280,2013-02-01 01:15:00
7:35 PM,-14.8,-20.2,77,30.23,10.0,WNW,9.2,-,N/A,,Clear,300,2013-02-01 01:35:00
7:55 PM,-14.8,-20.2,77,30.23,10.0,West,10.4,-,N/A,,Partly Cloudy,280,2013-02-01 01:55:00
8:15 PM,-14.8,-20.2,77,30.23,10.0,WSW,6.9,-,N/A,,Scattered Clouds,250,2013-02-01 02:15:00
8:35 PM,-13.0,-20.2,70,30.22,10.0,West,5.8,-,N/A,,Mostly Cloudy,260,2013-02-01 02:35:00
9:15 PM,-14.8,-20.2,77,30.21,-9999.0,SW,3.5,-,N/A,,Mostly Cloudy,220,2013-02-01 03:15:00
9:35 PM,-13.0,-18.4,77,30.20,-9999.0,SW,3.5,-,N/A,,Mostly Cloudy,230,2013-02-01 03:35:00
9:55 PM,-13.0,-18.4,77,30.20,-9999.0,WSW,4.6,-,N/A,,Partly Cloudy,240,2013-02-01 03:55:00
10:15 PM,-13.0,-20.2,70,30.19,-9999.0,WSW,4.6,-,N/A,,Clear,240,2013-02-01 04:15:00
10:35 PM,-13.0,-18.4,77,30.18,-9999.0,SW,5.8,-,N/A,,Clear,230,2013-02-01 04:35:00
10:55 PM,-13.0,-18.4,77,30.17,-9999.0,SW,5.8,-,N/A,,Clear,220,2013-02-01 04:55:00
11:15 PM,-13.0,-18.4,77,30.18,-9999.0,SW,8.1,-,N/A,,Mostly Cloudy,230,2013-02-01 05:15:00
11:35 PM,-13.0,-18.4,77,30.17,-9999.0,WSW,4.6,-,N/A,,Overcast,240,2013-02-01 05:35:00
11:55 PM,-11.2,-18.4,70,30.17,-9999.0,SW,5.8,-,N/A,,Overcast,220,2013-02-01 05:55:00